createdAt,value
2022-09-24T00:01:27.101Z,7.17
2022-09-24T00:04:00.437Z,8.00
2022-09-24T00:06:28.908Z,7.40
2022-09-24T00:08:57.004Z,8.13
2022-09-24T00:11:26.261Z,8.70
2022-09-24T00:13:53.883Z,8.13
2022-09-24T00:16:22.218Z,7.93
2022-09-24T00:18:49.020Z,7.40
2022-09-24T00:21:21.389Z,8.40
2022-09-24T00:23:57.410Z,7.50
2022-09-24T00:26:43.236Z,8.20
2022-09-24T00:29:12.261Z,8.33
2022-09-24T00:31:39.336Z,8.60
2022-09-24T00:34:06.280Z,7.50
2022-09-24T00:36:33.127Z,8.77
2022-09-24T00:39:00.499Z,6.53
2022-09-24T00:41:30.334Z,6.80
2022-09-24T00:43:58.297Z,6.37
2022-09-24T00:46:32.334Z,6.93
2022-09-24T00:49:04.768Z,6.87
2022-09-24T00:51:33.273Z,6.73
2022-09-24T00:54:05.542Z,6.93
2022-09-24T00:56:36.524Z,7.23
2022-09-24T00:59:05.063Z,7.23
2022-09-24T01:01:31.800Z,7.40
2022-09-24T01:04:00.072Z,7.30
2022-09-24T01:06:27.271Z,7.43
2022-09-24T01:08:56.488Z,7.10
2022-09-24T01:11:48.776Z,7.33
2022-09-24T01:14:51.113Z,7.40
2022-09-24T01:17:27.688Z,7.93
2022-09-24T01:19:57.010Z,7.53
2022-09-24T01:22:38.604Z,8.50
2022-09-24T01:25:14.037Z,7.10
2022-09-24T01:28:04.736Z,8.23
2022-09-24T01:30:34.974Z,7.53
2022-09-24T01:33:04.513Z,7.60
2022-09-24T01:35:38.790Z,8.17
2022-09-24T01:38:11.886Z,8.07
2022-09-24T01:40:40.396Z,7.87
2022-09-24T01:43:09.526Z,8.53
2022-09-24T01:45:38.545Z,8.00
2022-09-24T01:48:05.937Z,8.00
2022-09-24T01:50:40.425Z,7.63
2022-09-24T01:53:29.987Z,7.87
2022-09-24T01:56:07.266Z,8.30
2022-09-24T01:58:40.515Z,8.17
2022-09-24T02:01:11.512Z,8.07
2022-09-24T02:03:43.955Z,7.70
2022-09-24T02:06:25.936Z,7.37
2022-09-24T02:08:52.567Z,7.50
2022-09-24T02:11:22.454Z,7.40
2022-09-24T02:14:04.285Z,6.70
2022-09-24T02:16:37.583Z,7.70
2022-09-24T02:19:08.726Z,7.17
2022-09-24T02:21:37.452Z,7.07
2022-09-24T02:24:10.743Z,7.67
2022-09-24T02:26:37.548Z,7.10
2022-09-24T02:29:05.273Z,8.20
2022-09-24T02:31:38.616Z,6.93
2022-09-24T02:34:23.357Z,6.70
2022-09-24T02:36:59.666Z,8.30
2022-09-24T02:39:26.842Z,7.40
2022-09-24T02:41:54.837Z,7.33
2022-09-24T02:44:22.279Z,7.40
2022-09-24T02:46:50.651Z,7.73
2022-09-24T02:49:18.149Z,7.47
2022-09-24T02:51:44.930Z,7.37
2022-09-24T02:54:11.821Z,6.93
2022-09-24T02:56:38.560Z,6.73
2022-09-24T02:59:05.285Z,6.07
2022-09-24T03:01:33.509Z,6.43
2022-09-24T03:04:01.343Z,6.23
2022-09-24T03:06:28.527Z,5.93
2022-09-24T03:08:55.143Z,7.60
2022-09-24T03:11:23.015Z,7.63
2022-09-24T03:13:50.242Z,6.30
2022-09-24T03:16:18.446Z,7.30
2022-09-24T03:18:47.390Z,7.23
2022-09-24T03:21:16.397Z,6.47
2022-09-24T03:23:43.269Z,7.23
2022-09-24T03:26:10.242Z,6.70
2022-09-24T03:28:36.833Z,7.03
2022-09-24T03:31:03.634Z,6.57
2022-09-24T03:33:34.464Z,7.00
2022-09-24T03:36:04.243Z,7.07
2022-09-24T03:38:32.135Z,6.63
2022-09-24T03:41:00.056Z,7.33
2022-09-24T03:43:27.093Z,6.47
2022-09-24T03:45:54.088Z,6.30
2022-09-24T03:48:22.183Z,6.63
2022-09-24T03:50:49.601Z,6.60
2022-09-24T03:53:17.901Z,7.87
2022-09-24T03:55:56.087Z,7.57
2022-09-24T03:58:23.460Z,6.97
2022-09-24T04:00:54.067Z,7.40
2022-09-24T04:03:22.082Z,6.20
2022-09-24T04:05:51.195Z,6.07
2022-09-24T04:08:19.242Z,6.47
2022-09-24T04:10:47.009Z,6.40
2022-09-24T04:13:13.792Z,5.70
2022-09-24T04:15:40.458Z,6.27
2022-09-24T04:18:07.098Z,6.33
2022-09-24T04:20:34.689Z,6.20
2022-09-24T04:23:01.533Z,7.00
2022-09-24T04:25:31.185Z,5.73
2022-09-24T04:28:00.148Z,5.50
2022-09-24T04:30:28.041Z,8.17
2022-09-24T04:32:54.682Z,10.63
2022-09-24T04:35:24.252Z,9.33
2022-09-24T04:37:50.863Z,9.40
2022-09-24T04:40:18.132Z,7.47
2022-09-24T04:42:46.225Z,6.10
2022-09-24T04:45:19.888Z,6.10
2022-09-24T04:47:55.965Z,5.70
2022-09-24T04:50:23.100Z,6.10
2022-09-24T04:52:49.688Z,5.93
2022-09-24T04:55:16.437Z,5.60
2022-09-24T04:57:44.561Z,6.43
2022-09-24T05:00:15.348Z,6.20
2022-09-24T05:02:43.428Z,6.00
2022-09-24T05:05:11.359Z,7.60
2022-09-24T05:07:38.440Z,6.80
2022-09-24T05:10:06.495Z,7.77
2022-09-24T05:12:35.275Z,7.00
2022-09-24T05:15:02.061Z,6.73
2022-09-24T05:17:28.765Z,6.40
2022-09-24T05:19:57.681Z,6.43
2022-09-24T05:22:26.003Z,6.10
2022-09-24T05:24:52.672Z,6.30
2022-09-24T05:27:19.613Z,7.10
2022-09-24T05:29:46.179Z,6.70
2022-09-24T05:32:15.407Z,6.93
2022-09-24T05:34:46.076Z,6.80
2022-09-24T05:37:14.099Z,6.80
2022-09-24T05:39:41.017Z,7.53
2022-09-24T05:42:16.178Z,6.93
2022-09-24T05:44:44.257Z,7.30
2022-09-24T05:47:13.671Z,6.37
2022-09-24T05:49:40.251Z,7.17
2022-09-24T05:52:06.862Z,7.37
2022-09-24T05:54:33.502Z,7.77
2022-09-24T05:57:00.112Z,6.27
2022-09-24T05:59:26.785Z,7.10
2022-09-24T06:01:54.301Z,5.73
2022-09-24T06:04:20.930Z,6.87
2022-09-24T06:06:47.532Z,6.77
2022-09-24T06:09:14.570Z,6.50
2022-09-24T06:11:42.058Z,5.70
2022-09-24T06:14:09.832Z,6.23
2022-09-24T06:16:36.827Z,6.50
2022-09-24T06:19:03.520Z,6.67
2022-09-24T06:21:30.447Z,7.40
2022-09-24T06:23:57.329Z,8.07
2022-09-24T06:26:26.118Z,8.10
2022-09-24T06:28:52.784Z,7.90
2022-09-24T06:31:19.757Z,8.10
2022-09-24T06:33:46.708Z,8.63
2022-09-24T06:36:13.347Z,8.07
2022-09-24T06:38:40.570Z,8.67
2022-09-24T06:41:07.729Z,8.20
2022-09-24T06:43:34.901Z,8.17
2022-09-24T06:46:03.199Z,8.70
2022-09-24T06:48:31.043Z,8.07
2022-09-24T06:50:57.885Z,7.73
2022-09-24T06:53:24.858Z,6.30
2022-09-24T06:55:51.496Z,6.63
2022-09-24T06:58:20.602Z,6.10
2022-09-24T07:00:58.115Z,5.53
2022-09-24T07:03:25.854Z,5.57
2022-09-24T07:05:52.868Z,5.77
2022-09-24T07:08:19.486Z,5.10
2022-09-24T07:10:49.134Z,6.60
2022-09-24T07:13:16.636Z,5.17
2022-09-24T07:15:44.321Z,6.50
2022-09-24T07:18:11.941Z,5.33
2022-09-24T07:20:38.772Z,5.90
2022-09-24T07:23:07.045Z,4.83
2022-09-24T07:25:33.935Z,5.47
2022-09-24T07:28:03.068Z,4.90
2022-09-24T07:30:29.813Z,5.60
2022-09-24T07:32:57.007Z,5.60
2022-09-24T07:35:24.031Z,6.20
2022-09-24T07:38:07.178Z,5.60
2022-09-24T07:40:34.382Z,5.90
2022-09-24T07:43:01.098Z,5.70
2022-09-24T07:45:29.426Z,5.80
2022-09-24T07:48:02.634Z,6.10
2022-09-24T07:50:31.482Z,5.57
2022-09-24T07:52:58.465Z,5.53
2022-09-24T07:55:26.544Z,7.70
2022-09-24T07:57:55.097Z,6.50
2022-09-24T08:00:23.790Z,6.57
2022-09-24T08:02:51.850Z,7.03
2022-09-24T08:05:18.550Z,6.70
2022-09-24T08:07:55.638Z,6.50
2022-09-24T08:10:23.555Z,8.27
2022-09-24T08:12:50.250Z,7.13
2022-09-24T08:15:17.111Z,7.60
2022-09-24T08:17:43.750Z,7.10
2022-09-24T08:20:12.188Z,7.93
2022-09-24T08:22:38.848Z,7.63
2022-09-24T08:25:06.136Z,7.30
2022-09-24T08:27:36.164Z,8.80
2022-09-24T08:30:06.688Z,9.97
2022-09-24T08:32:33.332Z,9.67
2022-09-24T08:34:59.975Z,9.53
2022-09-24T08:37:28.752Z,10.40
2022-09-24T08:39:55.804Z,10.70
2022-09-24T08:42:31.342Z,11.60
2022-09-24T08:45:18.326Z,11.87
2022-09-24T08:47:59.161Z,10.70
2022-09-24T08:50:28.929Z,11.60
2022-09-24T08:52:55.491Z,10.80
2022-09-24T08:55:33.863Z,12.40
2022-09-24T08:58:18.631Z,11.37
2022-09-24T09:01:15.925Z,12.50
2022-09-24T09:04:15.432Z,11.03
2022-09-24T09:07:27.342Z,12.97
2022-09-24T09:10:10.467Z,11.87
2022-09-24T09:12:48.527Z,12.20
2022-09-24T09:15:19.978Z,13.00
2022-09-24T09:17:59.495Z,13.40
2022-09-24T09:20:35.328Z,12.60
2022-09-24T09:23:30.579Z,12.63
2022-09-24T09:25:59.652Z,12.50
2022-09-24T09:28:27.575Z,13.70
2022-09-24T09:30:58.907Z,13.00
2022-09-24T09:33:35.482Z,12.43
2022-09-24T09:36:31.376Z,12.53
2022-09-24T09:39:33.626Z,13.07
2022-09-24T09:42:13.278Z,13.10
2022-09-24T09:44:42.455Z,14.67
2022-09-24T09:47:16.348Z,12.50
2022-09-24T09:49:45.482Z,11.80
2022-09-24T09:52:17.970Z,12.83
2022-09-24T09:54:45.621Z,13.57
2022-09-24T09:57:18.174Z,13.30
2022-09-24T09:59:50.447Z,12.53
2022-09-24T10:02:27.881Z,12.30
2022-09-24T10:05:05.865Z,11.80
2022-09-24T10:07:43.707Z,12.63
2022-09-24T10:10:24.103Z,12.50
2022-09-24T10:13:08.357Z,12.50
2022-09-24T10:15:43.217Z,11.90
2022-09-24T10:18:14.508Z,11.73
2022-09-24T10:20:48.137Z,11.90
2022-09-24T10:23:22.742Z,11.87
2022-09-24T10:25:59.409Z,12.27
2022-09-24T10:28:46.135Z,10.93
2022-09-24T10:31:16.724Z,11.33
2022-09-24T10:33:47.152Z,12.10
2022-09-24T10:36:22.211Z,12.13
2022-09-24T10:39:02.305Z,11.60
2022-09-24T10:41:31.652Z,12.67
2022-09-24T10:44:03.151Z,13.47
2022-09-24T10:46:43.603Z,13.83
2022-09-24T10:49:41.435Z,13.13
2022-09-24T10:52:37.978Z,14.10
2022-09-24T10:55:22.195Z,12.43
2022-09-24T10:58:02.843Z,13.43
2022-09-24T11:00:49.041Z,12.90
2022-09-24T11:03:48.775Z,13.20
2022-09-24T11:06:52.769Z,12.17
2022-09-24T11:09:25.418Z,11.90
2022-09-24T11:12:15.259Z,10.23
2022-09-24T11:15:03.017Z,10.47
2022-09-24T11:17:34.581Z,10.83
2022-09-24T11:20:07.464Z,8.97
2022-09-24T11:23:00.193Z,10.10
2022-09-24T11:26:13.086Z,12.30
2022-09-24T11:28:51.259Z,11.23
2022-09-24T11:31:30.304Z,13.90
2022-09-24T11:34:06.040Z,12.17
2022-09-24T11:37:00.520Z,12.07
2022-09-24T11:39:36.050Z,10.53
2022-09-24T11:42:21.398Z,11.27
2022-09-24T11:45:06.756Z,9.20
2022-09-24T11:47:50.283Z,7.90
2022-09-24T11:50:35.949Z,8.50
2022-09-24T11:53:22.806Z,8.33
2022-09-24T11:56:01.141Z,7.40
2022-09-24T11:58:35.756Z,7.67
2022-09-24T12:01:11.028Z,8.37
2022-09-24T12:03:45.305Z,8.20
2022-09-24T12:06:21.815Z,7.33
2022-09-24T12:08:57.204Z,7.93
2022-09-24T12:11:41.208Z,7.17
2022-09-24T12:14:20.507Z,7.97
2022-09-24T12:16:51.349Z,7.50
2022-09-24T12:19:30.661Z,7.17
2022-09-24T12:21:58.296Z,6.90
2022-09-24T12:24:30.510Z,7.83
2022-09-24T12:27:00.011Z,7.50
2022-09-24T12:29:55.491Z,7.60
2022-09-24T12:32:55.783Z,7.20
2022-09-24T12:35:54.993Z,7.47
2022-09-24T12:38:33.233Z,7.20
2022-09-24T12:41:11.201Z,6.87
2022-09-24T12:43:53.686Z,8.53
2022-09-24T12:46:33.618Z,7.73
2022-09-24T12:49:01.035Z,8.37
2022-09-24T12:51:37.009Z,9.30
2022-09-24T12:54:33.055Z,10.10
2022-09-24T12:57:10.720Z,9.00
2022-09-24T13:00:01.191Z,9.63
2022-09-24T13:02:29.072Z,9.50
2022-09-24T13:05:02.100Z,9.20
2022-09-24T13:07:37.538Z,11.60
2022-09-24T13:10:16.177Z,10.10
2022-09-24T13:12:43.624Z,10.37
2022-09-24T13:15:38.591Z,10.80
2022-09-24T13:18:11.030Z,9.90
2022-09-24T13:20:47.626Z,10.10
2022-09-24T13:23:20.285Z,9.90
2022-09-24T13:26:05.002Z,10.17
2022-09-24T13:28:58.392Z,8.90
2022-09-24T13:31:36.567Z,9.00
2022-09-24T13:34:09.527Z,8.93
2022-09-24T13:36:42.199Z,7.20
2022-09-24T13:39:27.692Z,7.80
2022-09-24T13:42:13.946Z,8.07
2022-09-24T13:44:42.322Z,7.63
2022-09-24T13:47:44.626Z,7.57
2022-09-24T13:50:24.146Z,7.80
2022-09-24T13:52:57.676Z,7.00
2022-09-24T13:55:34.425Z,7.47
2022-09-24T13:58:01.263Z,7.53
2022-09-24T14:00:29.905Z,7.20
2022-09-24T14:03:03.356Z,8.13
2022-09-24T14:05:39.843Z,8.53
2022-09-24T14:08:15.397Z,8.90
2022-09-24T14:10:42.754Z,8.63
2022-09-24T14:13:23.423Z,7.37
2022-09-24T14:16:07.058Z,8.10
2022-09-24T14:18:34.037Z,8.47
2022-09-24T14:21:07.332Z,7.47
2022-09-24T14:23:39.929Z,7.27
2022-09-24T14:26:10.616Z,9.00
2022-09-24T14:28:37.471Z,9.10
2022-09-24T14:31:09.050Z,8.90
2022-09-24T14:33:39.101Z,9.33
2022-09-24T14:36:15.683Z,9.97
2022-09-24T14:39:04.789Z,9.20
2022-09-24T14:41:34.108Z,8.80
2022-09-24T14:44:19.667Z,8.70
2022-09-24T14:46:50.363Z,8.13
2022-09-24T14:49:19.751Z,9.80
2022-09-24T14:51:55.908Z,9.67
2022-09-24T14:54:34.705Z,9.40
2022-09-24T14:57:11.462Z,9.77
2022-09-24T14:59:41.632Z,7.60
2022-09-24T15:02:30.706Z,8.60
2022-09-24T15:05:06.190Z,10.03
2022-09-24T15:07:34.812Z,9.60
2022-09-24T15:10:04.549Z,8.90
2022-09-24T15:12:33.796Z,9.50
2022-09-24T15:15:03.924Z,9.13
2022-09-24T15:17:33.666Z,8.60
2022-09-24T15:20:01.732Z,7.83
2022-09-24T15:22:30.469Z,9.37
2022-09-24T15:25:01.942Z,10.27
2022-09-24T15:27:34.604Z,12.53
2022-09-24T15:30:04.514Z,12.20
2022-09-24T15:32:33.691Z,13.27
2022-09-24T15:35:00.370Z,12.27
2022-09-24T15:37:28.791Z,13.90
2022-09-24T15:40:11.276Z,13.50
2022-09-24T15:42:37.957Z,11.97
2022-09-24T15:45:15.042Z,13.40
2022-09-24T15:47:41.646Z,14.33
2022-09-24T15:50:09.167Z,12.30
2022-09-24T15:52:46.845Z,13.13
2022-09-24T15:55:19.039Z,13.00
2022-09-24T15:57:46.830Z,12.27
2022-09-24T16:00:18.917Z,11.67
2022-09-24T16:02:50.218Z,11.30
2022-09-24T16:05:17.676Z,11.77
2022-09-24T16:07:44.829Z,11.80
2022-09-24T16:10:13.726Z,11.73
2022-09-24T16:12:40.866Z,10.87
2022-09-24T16:15:11.551Z,11.03
2022-09-24T16:17:38.552Z,10.27
2022-09-24T16:20:05.729Z,10.77
2022-09-24T16:22:32.324Z,10.30
2022-09-24T16:24:58.990Z,10.93
2022-09-24T16:27:25.654Z,9.40
2022-09-24T16:29:52.263Z,10.30
2022-09-24T16:32:21.950Z,10.00
2022-09-24T16:34:48.525Z,9.00
2022-09-24T16:37:16.764Z,8.60
2022-09-24T16:39:43.798Z,9.53
2022-09-24T16:42:10.385Z,9.60
2022-09-24T16:44:37.046Z,10.47
2022-09-24T16:47:03.794Z,11.80
2022-09-24T16:49:30.373Z,11.60
2022-09-24T16:51:57.069Z,10.93
2022-09-24T16:54:23.917Z,10.67
2022-09-24T16:56:52.025Z,10.87
2022-09-24T16:59:18.955Z,9.70
2022-09-24T17:01:45.678Z,11.93
2022-09-24T17:04:12.789Z,10.17
2022-09-24T17:06:39.586Z,11.30
2022-09-24T17:09:25.089Z,8.37
2022-09-24T17:11:51.803Z,3.70
2022-09-24T17:14:18.543Z,2.20
2022-09-24T17:16:45.824Z,2.90
2022-09-24T17:19:12.514Z,2.60
2022-09-24T17:21:41.380Z,2.60
2022-09-24T17:24:08.788Z,2.93
2022-09-24T17:26:35.849Z,3.50
2022-09-24T17:29:02.544Z,3.30
2022-09-24T17:31:29.548Z,4.00
2022-09-24T17:33:58.007Z,6.80
2022-09-24T17:36:27.228Z,5.27
2022-09-24T17:38:56.054Z,3.97
2022-09-24T17:41:23.326Z,4.60
2022-09-24T17:43:51.260Z,4.30
2022-09-24T17:46:21.750Z,4.33
2022-09-24T17:48:52.024Z,4.10
2022-09-24T17:51:22.633Z,4.20
2022-09-24T17:53:51.028Z,4.70
2022-09-24T17:56:18.100Z,4.47
2022-09-24T17:58:46.889Z,4.50
2022-09-24T18:01:21.156Z,5.50
2022-09-24T18:03:52.037Z,6.93
2022-09-24T18:06:18.796Z,5.67
2022-09-24T18:08:45.989Z,6.10
2022-09-24T18:11:19.054Z,6.53
2022-09-24T18:13:49.887Z,6.90
2022-09-24T18:16:18.031Z,6.90
2022-09-24T18:18:44.757Z,7.27
2022-09-24T18:21:13.575Z,6.20
2022-09-24T18:23:40.498Z,7.40
2022-09-24T18:26:32.352Z,7.00
2022-09-24T18:29:01.580Z,7.17
2022-09-24T18:31:30.732Z,7.10
2022-09-24T18:34:06.726Z,8.33
2022-09-24T18:36:38.710Z,7.20
2022-09-24T18:39:07.536Z,8.10
2022-09-24T18:41:35.152Z,8.73
2022-09-24T18:44:02.877Z,7.50
2022-09-24T18:46:30.890Z,7.40
2022-09-24T18:48:58.720Z,8.33
2022-09-24T18:51:30.926Z,6.13
2022-09-24T18:54:00.158Z,7.50
2022-09-24T18:56:27.322Z,6.50
2022-09-24T18:59:03.667Z,9.40
2022-09-24T19:01:32.679Z,8.40
2022-09-24T19:04:00.371Z,7.83
2022-09-24T19:06:28.697Z,8.03
2022-09-24T19:08:55.807Z,6.93
2022-09-24T19:11:22.743Z,7.80
2022-09-24T19:13:51.507Z,7.77
2022-09-24T19:16:20.197Z,7.23
2022-09-24T19:18:47.028Z,7.70
2022-09-24T19:21:15.412Z,8.00
2022-09-24T19:23:47.689Z,8.50
2022-09-24T19:26:18.461Z,7.80
2022-09-24T19:28:46.056Z,8.40
2022-09-24T19:31:15.286Z,7.53
2022-09-24T19:33:42.116Z,7.73
2022-09-24T19:36:09.653Z,6.83
2022-09-24T19:38:37.687Z,10.07
2022-09-24T19:41:19.056Z,7.97
2022-09-24T19:43:45.659Z,7.23
2022-09-24T19:49:07.516Z,8.20
2022-09-24T19:51:34.916Z,8.17
2022-09-24T19:54:07.417Z,8.57
2022-09-24T19:56:35.304Z,8.43
2022-09-24T19:59:02.662Z,8.57
2022-09-24T20:01:31.663Z,11.30
2022-09-24T20:04:01.725Z,9.23
2022-09-24T20:06:29.028Z,8.60
2022-09-24T20:08:56.325Z,10.30
2022-09-24T20:11:24.777Z,11.37
2022-09-24T20:13:53.239Z,12.97
2022-09-24T20:16:22.162Z,10.47
2022-09-24T20:18:50.918Z,9.30
2022-09-24T20:21:18.800Z,9.47
2022-09-24T20:23:47.173Z,10.60
2022-09-24T20:26:34.297Z,9.23
2022-09-24T20:29:02.101Z,9.93
2022-09-24T20:31:29.020Z,9.13
2022-09-24T20:33:55.729Z,9.40
2022-09-24T20:36:24.764Z,7.63
2022-09-24T20:38:52.255Z,8.33
2022-09-24T20:41:22.532Z,9.30
2022-09-24T20:43:50.031Z,9.33
2022-09-24T20:46:24.243Z,9.83
2022-09-24T20:48:52.625Z,10.07
2022-09-24T20:51:21.131Z,9.50
2022-09-24T20:53:48.959Z,9.70
2022-09-24T20:56:17.163Z,9.03
2022-09-24T20:58:44.322Z,9.97
2022-09-24T21:01:11.775Z,9.70
2022-09-24T21:03:45.339Z,10.20
2022-09-24T21:06:14.645Z,10.03
2022-09-24T21:08:43.731Z,10.07
2022-09-24T21:11:13.222Z,10.00
2022-09-24T21:13:41.678Z,10.80
2022-09-24T21:16:09.472Z,11.47
2022-09-24T21:18:40.329Z,11.43
2022-09-24T21:21:11.496Z,11.43
2022-09-24T21:23:39.628Z,10.80
2022-09-24T21:26:17.899Z,11.70
2022-09-24T21:28:48.728Z,12.53
2022-09-24T21:31:18.508Z,16.47
2022-09-24T21:33:47.247Z,17.83
2022-09-24T21:36:19.228Z,16.83
2022-09-24T21:38:54.714Z,13.73
2022-09-24T21:41:23.194Z,14.80
2022-09-24T21:43:50.038Z,11.43
2022-09-24T21:46:16.976Z,10.50
2022-09-24T21:48:43.644Z,11.53
2022-09-24T21:51:20.056Z,12.37
2022-09-24T21:53:47.414Z,11.63
2022-09-24T21:56:14.427Z,12.33
2022-09-24T21:58:41.004Z,11.77
2022-09-24T22:01:14.657Z,11.43
2022-09-24T22:03:41.457Z,10.37
2022-09-24T22:06:08.405Z,12.10
2022-09-24T22:08:35.062Z,11.23
2022-09-24T22:11:04.642Z,11.17
2022-09-24T22:13:32.722Z,10.90
2022-09-24T22:16:00.508Z,10.70
2022-09-24T22:18:27.958Z,12.30
2022-09-24T22:20:56.007Z,11.40
2022-09-24T22:23:23.143Z,11.20
2022-09-24T22:25:57.668Z,12.30
2022-09-24T22:28:25.725Z,10.87
2022-09-24T22:30:53.519Z,9.50
2022-09-24T22:33:39.200Z,11.87
2022-09-24T22:36:06.441Z,10.87
2022-09-24T22:38:33.760Z,11.87
2022-09-24T22:41:01.308Z,11.40
2022-09-24T22:43:31.895Z,11.10
2022-09-24T22:46:06.839Z,10.90
2022-09-24T22:48:34.191Z,12.13
2022-09-24T22:51:01.692Z,10.33
2022-09-24T22:53:29.024Z,11.20
2022-09-24T22:56:14.060Z,10.90
2022-09-24T22:58:44.748Z,11.33
2022-09-24T23:01:16.694Z,13.27
2022-09-24T23:03:44.839Z,11.47
2022-09-24T23:06:11.872Z,10.60
2022-09-24T23:08:40.709Z,11.40
2022-09-24T23:11:18.907Z,12.10
2022-09-24T23:13:50.393Z,12.70
2022-09-24T23:16:19.504Z,13.73
2022-09-24T23:18:48.015Z,14.23
2022-09-24T23:21:16.849Z,12.80
2022-09-24T23:23:43.969Z,12.90
2022-09-24T23:26:17.325Z,14.13
2022-09-24T23:28:52.674Z,12.53
2022-09-24T23:31:25.080Z,13.47
2022-09-24T23:33:53.183Z,14.00
2022-09-24T23:36:19.864Z,14.27
2022-09-24T23:38:47.223Z,14.13
2022-09-24T23:41:14.504Z,14.93
2022-09-24T23:43:41.980Z,15.03
2022-09-24T23:46:09.951Z,15.47
2022-09-24T23:48:36.912Z,16.77
2022-09-24T23:51:04.343Z,17.23
2022-09-24T23:53:31.154Z,16.20
2022-09-24T23:55:57.771Z,16.50
2022-09-24T23:58:25.117Z,15.80
